Grand Forks, North Dakota
Current Conditions -  °F | °C
As of 12:53 PM on Friday 28 Nov 2014 (Local Time) from KGFK Reporting Station
Overcast Overcast  
Wind Chill:   Ceiling: 3500
Heat Index: 15°   Visibility: 10mi
Dew Point:   Wind: 8mph
Humidity: 74%   Direction: 120°ESE
Pressure: 29.86"   Gusts: NA
Location:  47.92°N, 97.03°W
Report Text: KGFK 281853Z 12007KT 10SM FEW015 OVC035 M09/M13 A2986 RMK AO2 SLP131 T10941133
Loading
Personal Weather Stations






























Interactive Weather Map New forecast layout! Learn more

10-Day Weather Forecast

Advertisements
Track Severe Weather on mobile